Terminal Aerodrome Forecast
Issued by NWS Mobile, AL

Home | Current Version | Previous Version | Text Only | Print | Product List | Glossary On
Versions: 1 2 3 4 5 6 7 8 9 10 11 12 13 14 15
000
FTUS44 KMOB 251143
TAFPNS
TAF
KPNS 251143Z 2512/2612 27005KT P6SM SCT070
      TEMPO 2515/2518 5SM -SHRA BR SCT020 BKN030
     FM251800 32008KT P6SM VCTS SCT035CB BKN150
      TEMPO 2518/2522 3SM TSRA BKN030CB
     FM260000 35004KT P6SM SCT030 BKN150 OVC250=

USA.gov is the U.S. government's official web portal to all federal, state and local government web resources and services.